Atlantic Jupiter — VREY5 — position and weather

sailwx.info

Track history (hours):
 
Tides and Currents Weather Stations Pressure Air Temp Water Temp Dewpoint Dewpoint Depression Visibility Wind Speed Wind Dir Waves Ship Positions

Atlantic Jupiter

Last reported at 2018-Feb-24 15:26 UTC. Time now 2018-Feb-25 09:57 UTC.
Position N 39°24' W 000°16'.

Length 184 m; draft 8 m.

Type: Ship. MMSI: 477201400.

Date/timePositionNaut miles runAvg speedWind from/ knotsBaromVisibWave heightAir tempDewpointWater temp
2018-Feb-24 15:26N 39°24' W 000°16'0 1.0
2018-Feb-24 15:00N 39°23' W 000°15'99 9.7
2018-Feb-24 04:52N 37°45' W 000°20'513.9
2018-Feb-24 04:30N 37°41' W 000°24'713.8
2018-Feb-24 04:00N 37°35' W 000°29'713.5
2018-Feb-24 03:30N 37°30' W 000°34'713.0
2018-Feb-24 02:59N 37°26' W 000°41'612.9
2018-Feb-24 02:30N 37°22' W 000°47'612.8
2018-Feb-24 02:00N 37°17' W 000°53'612.8
2018-Feb-24 01:30N 37°13' W 000°59'612.7
2018-Feb-24 01:00N 37°09' W 001°05'20912.1
2018-Feb-23 07:43N 36°05' W 005°12'210.4
2018-Feb-23 07:30N 36°04' W 005°15'2 3.5
2018-Feb-23 06:57N 36°04' W 005°17'1 1.4
2018-Feb-23 06:30N 36°04' W 005°18'1 1.1
2018-Feb-23 06:00N 36°05' W 005°19'4 7.2
2018-Feb-23 05:30N 36°05' W 005°23'1 3.0
2018-Feb-23 05:00N 36°06' W 005°24'0 0.1
2018-Feb-23 04:28N 36°06' W 005°24'0 0.1
2018-Feb-23 03:58N 36°06' W 005°24'0 0.0
2018-Feb-23 03:28N 36°06' W 005°24'0 0.1
2018-Feb-23 02:55N 36°06' W 005°24'0 0.3
2018-Feb-23 02:28N 36°06' W 005°24'0 0.1
2018-Feb-23 01:58N 36°06' W 005°24'0 0.1
2018-Feb-23 01:25N 36°06' W 005°24'0 0.1
2018-Feb-23 00:58N 36°06' W 005°24'0 0.1
2018-Feb-23 00:28N 36°06' W 005°24'0 0.0
2018-Feb-22 23:58N 36°06' W 005°24'0 0.0
2018-Feb-22 20:55N 36°06' W 005°24'0 0.1
2018-Feb-22 20:28N 36°06' W 005°24'0 0.1
2018-Feb-22 19:58N 36°06' W 005°24'0 0.2
2018-Feb-22 19:28N 36°06' W 005°24'0 0.0
2018-Feb-22 18:58N 36°06' W 005°24'0 0.1
2018-Feb-22 18:25N 36°06' W 005°24'0 0.0
2018-Feb-22 17:55N 36°06' W 005°24'0 0.1
2018-Feb-22 17:28N 36°06' W 005°24'0 0.5
2018-Feb-22 16:55N 36°06' W 005°24'0 0.1
2018-Feb-22 16:25N 36°06' W 005°24'0 0.6
2018-Feb-22 16:00N 36°06' W 005°24'1 2.4
2018-Feb-22 15:30N 36°05' W 005°23'3 7.0
2018-Feb-22 15:00N 36°02' W 005°23'3 6.5
2018-Feb-22 14:30N 35°59' W 005°25'5 9.5
2018-Feb-22 14:00N 35°57' W 005°30'  
Track history (hours):
 
Tides and Currents Weather Stations Pressure Air Temp Water Temp Dewpoint Dewpoint Depression Visibility Wind Speed Wind Dir Waves Ship Positions

Atlantic Jupiter

Last reported at 2018-Feb-24 15:26 UTC. Time now 2018-Feb-25 09:57 UTC.
Position N 39°24' W 000°16'.

Length 184 m; draft 8 m.

Type: Ship. MMSI: 477201400.

Date/timePositionNaut miles runAvg speedWind from/ knotsBaromVisibWave heightAir tempDewpointWater temp
2018-Feb-24 15:26N 39°24' W 000°16'0 1.0
2018-Feb-24 15:00N 39°23' W 000°15'99 9.7
2018-Feb-24 04:52N 37°45' W 000°20'513.9
2018-Feb-24 04:30N 37°41' W 000°24'713.8
2018-Feb-24 04:00N 37°35' W 000°29'713.5
2018-Feb-24 03:30N 37°30' W 000°34'713.0
2018-Feb-24 02:59N 37°26' W 000°41'612.9
2018-Feb-24 02:30N 37°22' W 000°47'612.8
2018-Feb-24 02:00N 37°17' W 000°53'612.8
2018-Feb-24 01:30N 37°13' W 000°59'612.7
2018-Feb-24 01:00N 37°09' W 001°05'20912.1
2018-Feb-23 07:43N 36°05' W 005°12'210.4
2018-Feb-23 07:30N 36°04' W 005°15'2 3.5
2018-Feb-23 06:57N 36°04' W 005°17'1 1.4
2018-Feb-23 06:30N 36°04' W 005°18'1 1.1
2018-Feb-23 06:00N 36°05' W 005°19'4 7.2
2018-Feb-23 05:30N 36°05' W 005°23'1 3.0
2018-Feb-23 05:00N 36°06' W 005°24'0 0.1
2018-Feb-23 04:28N 36°06' W 005°24'0 0.1
2018-Feb-23 03:58N 36°06' W 005°24'0 0.0
2018-Feb-23 03:28N 36°06' W 005°24'0 0.1
2018-Feb-23 02:55N 36°06' W 005°24'0 0.3
2018-Feb-23 02:28N 36°06' W 005°24'0 0.1
2018-Feb-23 01:58N 36°06' W 005°24'0 0.1
2018-Feb-23 01:25N 36°06' W 005°24'0 0.1
2018-Feb-23 00:58N 36°06' W 005°24'0 0.1
2018-Feb-23 00:28N 36°06' W 005°24'0 0.0
2018-Feb-22 23:58N 36°06' W 005°24'0 0.0
2018-Feb-22 20:55N 36°06' W 005°24'0 0.1
2018-Feb-22 20:28N 36°06' W 005°24'0 0.1
2018-Feb-22 19:58N 36°06' W 005°24'0 0.2
2018-Feb-22 19:28N 36°06' W 005°24'0 0.0
2018-Feb-22 18:58N 36°06' W 005°24'0 0.1
2018-Feb-22 18:25N 36°06' W 005°24'0 0.0
2018-Feb-22 17:55N 36°06' W 005°24'0 0.1
2018-Feb-22 17:28N 36°06' W 005°24'0 0.5
2018-Feb-22 16:55N 36°06' W 005°24'0 0.1
2018-Feb-22 16:25N 36°06' W 005°24'0 0.6
2018-Feb-22 16:00N 36°06' W 005°24'1 2.4
2018-Feb-22 15:30N 36°05' W 005°23'3 7.0
2018-Feb-22 15:00N 36°02' W 005°23'3 6.5
2018-Feb-22 14:30N 35°59' W 005°25'5 9.5
2018-Feb-22 14:00N 35°57' W 005°30'  

Dump ship's entire track history